sensor_id;sensor_type;location;lat;lon;timestamp;P1;durP1;ratioP1;P2;durP2;ratioP2
21705;SDS011;11014;53.076;18.208;2022-07-10T00:00:49;2.15;;;1.52;;
21705;SDS011;11014;53.076;18.208;2022-07-10T00:03:18;1.70;;;1.60;;
21705;SDS011;11014;53.076;18.208;2022-07-10T00:05:47;1.65;;;1.55;;
21705;SDS011;11014;53.076;18.208;2022-07-10T00:08:17;1.50;;;1.40;;
21705;SDS011;11014;53.076;18.208;2022-07-10T00:10:45;1.70;;;1.58;;
21705;SDS011;11014;53.076;18.208;2022-07-10T00:13:14;2.40;;;1.90;;
21705;SDS011;11014;53.076;18.208;2022-07-10T00:15:42;1.98;;;1.77;;
21705;SDS011;11014;53.076;18.208;2022-07-10T00:18:10;1.90;;;1.70;;
21705;SDS011;11014;53.076;18.208;2022-07-10T00:20:39;1.90;;;1.80;;
21705;SDS011;11014;53.076;18.208;2022-07-10T00:23:08;1.90;;;1.80;;
21705;SDS011;11014;53.076;18.208;2022-07-10T00:25:36;2.00;;;1.80;;
21705;SDS011;11014;53.076;18.208;2022-07-10T00:28:04;1.80;;;1.50;;
21705;SDS011;11014;53.076;18.208;2022-07-10T00:30:32;1.60;;;1.50;;
21705;SDS011;11014;53.076;18.208;2022-07-10T00:33:01;1.65;;;1.55;;
21705;SDS011;11014;53.076;18.208;2022-07-10T00:35:29;1.77;;;1.60;;
21705;SDS011;11014;53.076;18.208;2022-07-10T00:37:57;1.50;;;1.40;;
21705;SDS011;11014;53.076;18.208;2022-07-10T00:40:26;1.80;;;1.70;;
21705;SDS011;11014;53.076;18.208;2022-07-10T00:42:54;1.75;;;1.55;;
21705;SDS011;11014;53.076;18.208;2022-07-10T00:45:22;1.88;;;1.58;;
21705;SDS011;11014;53.076;18.208;2022-07-10T00:48:08;1.70;;;1.60;;
21705;SDS011;11014;53.076;18.208;2022-07-10T00:50:37;1.55;;;1.40;;
21705;SDS011;11014;53.076;18.208;2022-07-10T00:53:06;1.83;;;1.67;;
21705;SDS011;11014;53.076;18.208;2022-07-10T00:55:35;1.90;;;1.80;;
21705;SDS011;11014;53.076;18.208;2022-07-10T00:58:05;1.60;;;1.50;;
21705;SDS011;11014;53.076;18.208;2022-07-10T01:00:35;2.40;;;1.30;;
21705;SDS011;11014;53.076;18.208;2022-07-10T01:03:05;1.63;;;1.52;;
21705;SDS011;11014;53.076;18.208;2022-07-10T01:05:33;1.45;;;1.33;;
21705;SDS011;11014;53.076;18.208;2022-07-10T01:08:02;1.83;;;1.73;;
21705;SDS011;11014;53.076;18.208;2022-07-10T01:10:30;1.65;;;1.55;;
21705;SDS011;11014;53.076;18.208;2022-07-10T01:12:59;1.70;;;1.60;;
21705;SDS011;11014;53.076;18.208;2022-07-10T01:15:27;1.77;;;1.48;;
21705;SDS011;11014;53.076;18.208;2022-07-10T01:17:56;1.73;;;1.45;;
21705;SDS011;11014;53.076;18.208;2022-07-10T01:20:29;1.67;;;1.58;;
21705;SDS011;11014;53.076;18.208;2022-07-10T01:23:01;1.95;;;1.50;;
21705;SDS011;11014;53.076;18.208;2022-07-10T01:25:30;1.77;;;1.67;;
21705;SDS011;11014;53.076;18.208;2022-07-10T01:27:58;1.52;;;1.42;;
21705;SDS011;11014;53.076;18.208;2022-07-10T01:30:26;1.60;;;1.50;;
21705;SDS011;11014;53.076;18.208;2022-07-10T01:32:55;1.70;;;1.60;;
21705;SDS011;11014;53.076;18.208;2022-07-10T01:35:23;1.80;;;1.70;;
21705;SDS011;11014;53.076;18.208;2022-07-10T01:37:52;1.45;;;1.35;;
21705;SDS011;11014;53.076;18.208;2022-07-10T01:40:20;1.50;;;1.40;;
21705;SDS011;11014;53.076;18.208;2022-07-10T01:42:48;1.63;;;1.52;;
21705;SDS011;11014;53.076;18.208;2022-07-10T01:45:17;2.08;;;1.42;;
21705;SDS011;11014;53.076;18.208;2022-07-10T01:47:45;2.10;;;1.63;;
21705;SDS011;11014;53.076;18.208;2022-07-10T01:50:14;1.50;;;1.40;;
21705;SDS011;11014;53.076;18.208;2022-07-10T01:52:42;1.73;;;1.63;;
21705;SDS011;11014;53.076;18.208;2022-07-10T01:55:11;1.60;;;1.48;;
21705;SDS011;11014;53.076;18.208;2022-07-10T01:57:39;1.70;;;1.60;;
21705;SDS011;11014;53.076;18.208;2022-07-10T02:00:08;1.50;;;1.40;;
21705;SDS011;11014;53.076;18.208;2022-07-10T02:02:40;1.40;;;1.30;;
21705;SDS011;11014;53.076;18.208;2022-07-10T02:05:08;2.25;;;1.63;;
21705;SDS011;11014;53.076;18.208;2022-07-10T02:07:37;1.92;;;1.45;;
21705;SDS011;11014;53.076;18.208;2022-07-10T02:10:05;1.45;;;1.35;;
21705;SDS011;11014;53.076;18.208;2022-07-10T02:12:34;1.58;;;1.30;;
21705;SDS011;11014;53.076;18.208;2022-07-10T02:15:02;1.60;;;1.50;;
21705;SDS011;11014;53.076;18.208;2022-07-10T02:17:31;1.48;;;1.38;;
21705;SDS011;11014;53.076;18.208;2022-07-10T02:19:59;1.60;;;1.50;;
21705;SDS011;11014;53.076;18.208;2022-07-10T02:22:28;1.67;;;1.58;;
21705;SDS011;11014;53.076;18.208;2022-07-10T02:24:56;1.50;;;1.40;;
21705;SDS011;11014;53.076;18.208;2022-07-10T02:27:24;2.33;;;1.63;;
21705;SDS011;11014;53.076;18.208;2022-07-10T02:29:53;1.67;;;1.40;;
21705;SDS011;11014;53.076;18.208;2022-07-10T02:32:21;1.65;;;1.55;;
21705;SDS011;11014;53.076;18.208;2022-07-10T02:34:50;1.70;;;1.55;;
21705;SDS011;11014;53.076;18.208;2022-07-10T02:37:18;1.90;;;1.60;;
21705;SDS011;11014;53.076;18.208;2022-07-10T02:39:46;1.50;;;1.40;;
21705;SDS011;11014;53.076;18.208;2022-07-10T02:42:15;1.52;;;1.42;;
21705;SDS011;11014;53.076;18.208;2022-07-10T02:44:43;1.60;;;1.50;;
21705;SDS011;11014;53.076;18.208;2022-07-10T02:47:11;1.70;;;1.60;;
21705;SDS011;11014;53.076;18.208;2022-07-10T02:49:40;1.30;;;1.20;;
21705;SDS011;11014;53.076;18.208;2022-07-10T02:52:08;2.67;;;1.50;;
21705;SDS011;11014;53.076;18.208;2022-07-10T02:54:37;1.70;;;1.60;;
21705;SDS011;11014;53.076;18.208;2022-07-10T02:57:06;1.25;;;1.20;;
21705;SDS011;11014;53.076;18.208;2022-07-10T02:59:34;1.50;;;1.40;;
21705;SDS011;11014;53.076;18.208;2022-07-10T03:02:03;1.52;;;1.30;;
21705;SDS011;11014;53.076;18.208;2022-07-10T03:04:31;1.73;;;1.33;;
21705;SDS011;11014;53.076;18.208;2022-07-10T03:07:00;1.73;;;1.63;;
21705;SDS011;11014;53.076;18.208;2022-07-10T03:09:28;1.20;;;1.10;;
21705;SDS011;11014;53.076;18.208;2022-07-10T03:11:57;1.48;;;1.38;;
21705;SDS011;11014;53.076;18.208;2022-07-10T03:14:25;1.23;;;1.13;;
21705;SDS011;11014;53.076;18.208;2022-07-10T03:16:53;1.40;;;1.30;;
21705;SDS011;11014;53.076;18.208;2022-07-10T03:19:22;1.40;;;1.30;;
21705;SDS011;11014;53.076;18.208;2022-07-10T03:21:50;1.50;;;1.40;;
21705;SDS011;11014;53.076;18.208;2022-07-10T03:24:19;1.58;;;1.48;;
21705;SDS011;11014;53.076;18.208;2022-07-10T03:26:47;1.42;;;1.33;;
21705;SDS011;11014;53.076;18.208;2022-07-10T03:29:15;1.65;;;1.50;;
21705;SDS011;11014;53.076;18.208;2022-07-10T03:31:49;1.20;;;1.10;;
21705;SDS011;11014;53.076;18.208;2022-07-10T03:34:17;1.50;;;1.40;;
21705;SDS011;11014;53.076;18.208;2022-07-10T03:36:46;1.52;;;1.42;;
21705;SDS011;11014;53.076;18.208;2022-07-10T03:39:14;1.55;;;1.45;;
21705;SDS011;11014;53.076;18.208;2022-07-10T03:41:42;1.30;;;1.20;;
21705;SDS011;11014;53.076;18.208;2022-07-10T03:44:11;1.38;;;1.20;;
21705;SDS011;11014;53.076;18.208;2022-07-10T03:46:39;1.63;;;1.30;;
21705;SDS011;11014;53.076;18.208;2022-07-10T03:49:07;1.45;;;1.35;;
21705;SDS011;11014;53.076;18.208;2022-07-10T03:51:35;1.40;;;1.30;;
21705;SDS011;11014;53.076;18.208;2022-07-10T03:54:04;1.40;;;1.30;;
21705;SDS011;11014;53.076;18.208;2022-07-10T03:56:32;1.40;;;1.30;;
21705;SDS011;11014;53.076;18.208;2022-07-10T03:59:19;1.83;;;1.58;;
21705;SDS011;11014;53.076;18.208;2022-07-10T04:01:47;1.45;;;1.25;;
21705;SDS011;11014;53.076;18.208;2022-07-10T04:04:16;1.63;;;1.30;;
21705;SDS011;11014;53.076;18.208;2022-07-10T04:06:44;1.40;;;1.27;;
21705;SDS011;11014;53.076;18.208;2022-07-10T04:09:13;1.27;;;1.17;;
21705;SDS011;11014;53.076;18.208;2022-07-10T04:11:41;1.42;;;1.33;;
21705;SDS011;11014;53.076;18.208;2022-07-10T04:14:09;1.35;;;1.25;;
21705;SDS011;11014;53.076;18.208;2022-07-10T04:16:37;1.30;;;1.20;;
21705;SDS011;11014;53.076;18.208;2022-07-10T04:19:06;1.30;;;1.20;;
21705;SDS011;11014;53.076;18.208;2022-07-10T04:21:34;1.38;;;1.27;;
21705;SDS011;11014;53.076;18.208;2022-07-10T04:24:03;1.42;;;1.20;;
21705;SDS011;11014;53.076;18.208;2022-07-10T04:26:33;1.50;;;1.40;;
21705;SDS011;11014;53.076;18.208;2022-07-10T04:29:02;1.40;;;1.30;;
21705;SDS011;11014;53.076;18.208;2022-07-10T04:31:30;1.48;;;1.38;;
21705;SDS011;11014;53.076;18.208;2022-07-10T04:33:59;1.33;;;1.23;;
21705;SDS011;11014;53.076;18.208;2022-07-10T04:36:27;1.30;;;1.20;;
21705;SDS011;11014;53.076;18.208;2022-07-10T04:38:55;1.58;;;1.48;;
21705;SDS011;11014;53.076;18.208;2022-07-10T04:41:24;1.20;;;1.10;;
21705;SDS011;11014;53.076;18.208;2022-07-10T04:43:52;2.20;;;1.25;;
21705;SDS011;11014;53.076;18.208;2022-07-10T04:46:20;1.30;;;1.20;;
21705;SDS011;11014;53.076;18.208;2022-07-10T04:48:49;2.55;;;1.40;;
21705;SDS011;11014;53.076;18.208;2022-07-10T04:51:18;1.52;;;1.30;;
21705;SDS011;11014;53.076;18.208;2022-07-10T04:53:46;1.70;;;1.45;;
21705;SDS011;11014;53.076;18.208;2022-07-10T04:56:15;1.40;;;1.30;;
21705;SDS011;11014;53.076;18.208;2022-07-10T04:58:43;1.70;;;1.40;;
21705;SDS011;11014;53.076;18.208;2022-07-10T05:01:19;1.52;;;1.23;;
21705;SDS011;11014;53.076;18.208;2022-07-10T05:03:48;1.48;;;1.38;;
21705;SDS011;11014;53.076;18.208;2022-07-10T05:06:17;1.50;;;1.30;;
21705;SDS011;11014;53.076;18.208;2022-07-10T05:08:45;1.30;;;1.20;;
21705;SDS011;11014;53.076;18.208;2022-07-10T05:11:14;1.40;;;1.30;;
21705;SDS011;11014;53.076;18.208;2022-07-10T05:13:42;1.27;;;1.17;;
21705;SDS011;11014;53.076;18.208;2022-07-10T05:16:14;1.40;;;1.30;;
21705;SDS011;11014;53.076;18.208;2022-07-10T05:18:47;1.13;;;1.00;;
21705;SDS011;11014;53.076;18.208;2022-07-10T05:21:16;1.65;;;1.33;;
21705;SDS011;11014;53.076;18.208;2022-07-10T05:23:44;1.40;;;1.30;;
21705;SDS011;11014;53.076;18.208;2022-07-10T05:26:13;1.90;;;1.17;;
21705;SDS011;11014;53.076;18.208;2022-07-10T05:28:41;1.45;;;1.20;;
21705;SDS011;11014;53.076;18.208;2022-07-10T05:31:09;1.42;;;1.33;;
21705;SDS011;11014;53.076;18.208;2022-07-10T05:33:38;1.00;;;1.00;;
21705;SDS011;11014;53.076;18.208;2022-07-10T05:36:08;1.30;;;1.20;;
21705;SDS011;11014;53.076;18.208;2022-07-10T05:38:36;1.00;;;1.00;;
21705;SDS011;11014;53.076;18.208;2022-07-10T05:41:06;1.08;;;1.08;;
21705;SDS011;11014;53.076;18.208;2022-07-10T05:43:34;1.50;;;1.40;;
21705;SDS011;11014;53.076;18.208;2022-07-10T05:46:03;1.23;;;1.17;;
21705;SDS011;11014;53.076;18.208;2022-07-10T05:48:32;1.20;;;1.10;;
21705;SDS011;11014;53.076;18.208;2022-07-10T05:51:00;1.30;;;1.20;;
21705;SDS011;11014;53.076;18.208;2022-07-10T05:53:49;1.20;;;1.10;;
21705;SDS011;11014;53.076;18.208;2022-07-10T05:56:17;1.23;;;1.10;;
21705;SDS011;11014;53.076;18.208;2022-07-10T05:58:45;1.55;;;1.30;;
21705;SDS011;11014;53.076;18.208;2022-07-10T06:01:14;1.30;;;1.20;;
21705;SDS011;11014;53.076;18.208;2022-07-10T06:03:42;1.85;;;1.35;;
21705;SDS011;11014;53.076;18.208;2022-07-10T06:06:10;1.58;;;1.30;;
21705;SDS011;11014;53.076;18.208;2022-07-10T06:08:43;1.60;;;1.38;;
21705;SDS011;11014;53.076;18.208;2022-07-10T06:11:12;1.50;;;1.40;;
21705;SDS011;11014;53.076;18.208;2022-07-10T06:13:41;1.17;;;1.08;;
21705;SDS011;11014;53.076;18.208;2022-07-10T06:16:09;1.50;;;1.30;;
21705;SDS011;11014;53.076;18.208;2022-07-10T06:18:38;1.25;;;1.15;;
21705;SDS011;11014;53.076;18.208;2022-07-10T06:21:06;1.15;;;1.00;;
21705;SDS011;11014;53.076;18.208;2022-07-10T06:23:36;1.40;;;1.30;;
21705;SDS011;11014;53.076;18.208;2022-07-10T06:26:04;1.38;;;1.27;;
21705;SDS011;11014;53.076;18.208;2022-07-10T06:28:35;1.52;;;1.42;;
21705;SDS011;11014;53.076;18.208;2022-07-10T06:31:05;1.60;;;1.40;;
21705;SDS011;11014;53.076;18.208;2022-07-10T06:33:33;1.58;;;1.25;;
21705;SDS011;11014;53.076;18.208;2022-07-10T06:36:03;1.40;;;1.30;;
21705;SDS011;11014;53.076;18.208;2022-07-10T06:38:32;1.20;;;1.10;;
21705;SDS011;11014;53.076;18.208;2022-07-10T06:41:00;1.30;;;1.20;;
21705;SDS011;11014;53.076;18.208;2022-07-10T06:43:28;1.35;;;1.25;;
21705;SDS011;11014;53.076;18.208;2022-07-10T06:45:57;1.17;;;1.08;;
21705;SDS011;11014;53.076;18.208;2022-07-10T06:48:26;1.30;;;1.20;;
21705;SDS011;11014;53.076;18.208;2022-07-10T06:50:55;1.20;;;1.10;;
21705;SDS011;11014;53.076;18.208;2022-07-10T06:53:23;1.40;;;1.30;;
21705;SDS011;11014;53.076;18.208;2022-07-10T06:55:55;1.15;;;1.10;;
21705;SDS011;11014;53.076;18.208;2022-07-10T06:58:24;1.40;;;1.30;;
21705;SDS011;11014;53.076;18.208;2022-07-10T07:00:52;1.20;;;1.10;;
21705;SDS011;11014;53.076;18.208;2022-07-10T07:03:20;1.10;;;1.00;;
21705;SDS011;11014;53.076;18.208;2022-07-10T07:05:49;1.52;;;1.05;;
21705;SDS011;11014;53.076;18.208;2022-07-10T07:08:17;1.10;;;1.00;;
21705;SDS011;11014;53.076;18.208;2022-07-10T07:10:45;1.20;;;1.10;;
21705;SDS011;11014;53.076;18.208;2022-07-10T07:13:14;1.25;;;1.10;;
21705;SDS011;11014;53.076;18.208;2022-07-10T07:15:42;1.13;;;1.02;;
21705;SDS011;11014;53.076;18.208;2022-07-10T07:18:17;1.40;;;1.30;;
21705;SDS011;11014;53.076;18.208;2022-07-10T07:20:46;1.75;;;1.30;;
21705;SDS011;11014;53.076;18.208;2022-07-10T07:23:32;1.13;;;1.02;;
21705;SDS011;11014;53.076;18.208;2022-07-10T07:26:00;1.35;;;1.20;;
21705;SDS011;11014;53.076;18.208;2022-07-10T07:28:29;1.00;;;1.00;;
21705;SDS011;11014;53.076;18.208;2022-07-10T07:30:57;1.27;;;1.15;;
21705;SDS011;11014;53.076;18.208;2022-07-10T07:33:27;1.52;;;1.27;;
21705;SDS011;11014;53.076;18.208;2022-07-10T07:35:55;1.75;;;1.30;;
21705;SDS011;11014;53.076;18.208;2022-07-10T07:38:24;1.20;;;1.10;;
21705;SDS011;11014;53.076;18.208;2022-07-10T07:40:52;1.58;;;1.10;;
21705;SDS011;11014;53.076;18.208;2022-07-10T07:43:20;1.35;;;1.13;;
21705;SDS011;11014;53.076;18.208;2022-07-10T07:45:49;1.23;;;1.13;;
21705;SDS011;11014;53.076;18.208;2022-07-10T07:48:17;1.27;;;1.17;;
21705;SDS011;11014;53.076;18.208;2022-07-10T07:50:46;1.23;;;1.13;;
21705;SDS011;11014;53.076;18.208;2022-07-10T07:53:14;1.30;;;1.20;;
21705;SDS011;11014;53.076;18.208;2022-07-10T07:55:43;1.38;;;1.27;;
21705;SDS011;11014;53.076;18.208;2022-07-10T07:58:11;1.25;;;1.15;;
21705;SDS011;11014;53.076;18.208;2022-07-10T08:00:39;1.30;;;1.10;;
21705;SDS011;11014;53.076;18.208;2022-07-10T08:03:08;0.93;;;0.93;;
21705;SDS011;11014;53.076;18.208;2022-07-10T08:05:36;1.20;;;0.98;;
21705;SDS011;11014;53.076;18.208;2022-07-10T08:08:04;1.52;;;1.10;;
21705;SDS011;11014;53.076;18.208;2022-07-10T08:10:36;1.88;;;1.02;;
21705;SDS011;11014;53.076;18.208;2022-07-10T08:13:11;1.58;;;1.13;;
21705;SDS011;11014;53.076;18.208;2022-07-10T08:15:40;1.77;;;1.10;;
21705;SDS011;11014;53.076;18.208;2022-07-10T08:18:10;0.80;;;0.80;;
21705;SDS011;11014;53.076;18.208;2022-07-10T08:20:38;1.40;;;1.20;;
21705;SDS011;11014;53.076;18.208;2022-07-10T08:23:07;1.55;;;1.02;;
21705;SDS011;11014;53.076;18.208;2022-07-10T08:25:36;1.70;;;1.30;;
21705;SDS011;11014;53.076;18.208;2022-07-10T08:28:05;1.23;;;1.13;;
21705;SDS011;11014;53.076;18.208;2022-07-10T08:30:34;1.23;;;1.13;;
21705;SDS011;11014;53.076;18.208;2022-07-10T08:33:02;1.23;;;1.13;;
21705;SDS011;11014;53.076;18.208;2022-07-10T08:35:31;2.53;;;1.20;;
21705;SDS011;11014;53.076;18.208;2022-07-10T08:37:59;1.33;;;1.17;;
21705;SDS011;11014;53.076;18.208;2022-07-10T08:40:31;0.90;;;0.90;;
21705;SDS011;11014;53.076;18.208;2022-07-10T08:43:04;1.13;;;1.02;;
21705;SDS011;11014;53.076;18.208;2022-07-10T08:45:33;1.20;;;1.08;;
21705;SDS011;11014;53.076;18.208;2022-07-10T08:48:02;1.75;;;1.00;;
21705;SDS011;11014;53.076;18.208;2022-07-10T08:50:35;0.93;;;0.90;;
21705;SDS011;11014;53.076;18.208;2022-07-10T08:53:12;1.10;;;1.00;;
21705;SDS011;11014;53.076;18.208;2022-07-10T08:55:44;1.13;;;1.00;;
21705;SDS011;11014;53.076;18.208;2022-07-10T08:58:12;1.10;;;1.00;;
21705;SDS011;11014;53.076;18.208;2022-07-10T09:00:41;1.13;;;1.08;;
21705;SDS011;11014;53.076;18.208;2022-07-10T09:03:10;1.10;;;1.00;;
21705;SDS011;11014;53.076;18.208;2022-07-10T09:05:38;1.20;;;1.10;;
21705;SDS011;11014;53.076;18.208;2022-07-10T09:08:23;1.23;;;1.10;;
21705;SDS011;11014;53.076;18.208;2022-07-10T09:11:15;1.20;;;1.10;;
21705;SDS011;11014;53.076;18.208;2022-07-10T09:14:00;1.75;;;1.10;;
21705;SDS011;11014;53.076;18.208;2022-07-10T09:16:37;1.13;;;1.02;;
21705;SDS011;11014;53.076;18.208;2022-07-10T09:19:17;1.58;;;1.00;;
21705;SDS011;11014;53.076;18.208;2022-07-10T09:21:46;1.25;;;1.10;;
21705;SDS011;11014;53.076;18.208;2022-07-10T09:29:24;1.20;;;1.10;;
21705;SDS011;11014;53.076;18.208;2022-07-10T09:31:54;1.20;;;1.10;;
21705;SDS011;11014;53.076;18.208;2022-07-10T09:34:39;1.38;;;1.25;;
21705;SDS011;11014;53.076;18.208;2022-07-10T09:40:06;1.20;;;1.10;;
21705;SDS011;11014;53.076;18.208;2022-07-10T09:42:37;1.50;;;1.40;;
21705;SDS011;11014;53.076;18.208;2022-07-10T09:47:45;1.30;;;1.17;;
21705;SDS011;11014;53.076;18.208;2022-07-10T09:52:54;1.25;;;1.15;;
21705;SDS011;11014;53.076;18.208;2022-07-10T09:55:26;1.40;;;1.20;;
21705;SDS011;11014;53.076;18.208;2022-07-10T09:58:01;1.70;;;0.90;;
21705;SDS011;11014;53.076;18.208;2022-07-10T10:00:31;1.35;;;1.25;;
21705;SDS011;11014;53.076;18.208;2022-07-10T10:03:05;1.38;;;1.10;;
21705;SDS011;11014;53.076;18.208;2022-07-10T10:12:02;1.10;;;1.00;;
21705;SDS011;11014;53.076;18.208;2022-07-10T10:14:35;1.15;;;1.05;;
21705;SDS011;11014;53.076;18.208;2022-07-10T10:17:04;1.10;;;1.00;;
21705;SDS011;11014;53.076;18.208;2022-07-10T10:19:34;1.02;;;1.00;;
21705;SDS011;11014;53.076;18.208;2022-07-10T10:22:21;1.10;;;1.00;;
21705;SDS011;11014;53.076;18.208;2022-07-10T10:24:51;1.73;;;1.10;;
21705;SDS011;11014;53.076;18.208;2022-07-10T10:27:21;0.90;;;0.90;;
21705;SDS011;11014;53.076;18.208;2022-07-10T10:29:51;1.45;;;0.95;;
21705;SDS011;11014;53.076;18.208;2022-07-10T10:32:20;0.93;;;0.90;;
21705;SDS011;11014;53.076;18.208;2022-07-10T10:34:49;1.25;;;1.10;;
21705;SDS011;11014;53.076;18.208;2022-07-10T10:39:55;1.17;;;1.08;;
21705;SDS011;11014;53.076;18.208;2022-07-10T10:42:33;1.00;;;1.00;;
21705;SDS011;11014;53.076;18.208;2022-07-10T10:50:55;1.10;;;1.00;;
21705;SDS011;11014;53.076;18.208;2022-07-10T10:53:28;0.90;;;0.90;;
21705;SDS011;11014;53.076;18.208;2022-07-10T10:58:44;1.33;;;1.23;;
21705;SDS011;11014;53.076;18.208;2022-07-10T11:06:49;1.10;;;1.00;;
21705;SDS011;11014;53.076;18.208;2022-07-10T11:09:33;1.20;;;1.10;;
21705;SDS011;11014;53.076;18.208;2022-07-10T11:12:08;1.10;;;0.90;;
21705;SDS011;11014;53.076;18.208;2022-07-10T11:14:39;1.50;;;1.10;;
21705;SDS011;11014;53.076;18.208;2022-07-10T11:17:12;2.47;;;1.20;;
21705;SDS011;11014;53.076;18.208;2022-07-10T11:19:41;1.02;;;0.90;;
21705;SDS011;11014;53.076;18.208;2022-07-10T11:24:40;1.60;;;0.95;;
21705;SDS011;11014;53.076;18.208;2022-07-10T11:27:15;2.47;;;1.20;;
21705;SDS011;11014;53.076;18.208;2022-07-10T11:30:09;1.60;;;1.10;;
21705;SDS011;11014;53.076;18.208;2022-07-10T11:32:39;1.90;;;1.30;;
21705;SDS011;11014;53.076;18.208;2022-07-10T11:35:13;2.92;;;1.02;;
21705;SDS011;11014;53.076;18.208;2022-07-10T11:37:52;4.53;;;1.15;;
21705;SDS011;11014;53.076;18.208;2022-07-10T11:40:20;3.28;;;1.60;;
21705;SDS011;11014;53.076;18.208;2022-07-10T11:42:50;2.88;;;1.20;;
21705;SDS011;11014;53.076;18.208;2022-07-10T11:45:26;3.40;;;1.30;;
21705;SDS011;11014;53.076;18.208;2022-07-10T11:47:57;3.70;;;1.40;;
21705;SDS011;11014;53.076;18.208;2022-07-10T11:50:26;6.32;;;1.40;;
21705;SDS011;11014;53.076;18.208;2022-07-10T11:52:55;3.17;;;1.55;;
21705;SDS011;11014;53.076;18.208;2022-07-10T11:55:23;2.65;;;1.20;;
21705;SDS011;11014;53.076;18.208;2022-07-10T11:57:54;3.83;;;1.48;;
21705;SDS011;11014;53.076;18.208;2022-07-10T12:00:27;2.00;;;1.10;;
21705;SDS011;11014;53.076;18.208;2022-07-10T12:02:57;2.10;;;1.30;;
21705;SDS011;11014;53.076;18.208;2022-07-10T12:05:45;2.92;;;1.20;;
21705;SDS011;11014;53.076;18.208;2022-07-10T12:08:14;4.95;;;1.30;;
21705;SDS011;11014;53.076;18.208;2022-07-10T12:10:43;3.47;;;1.10;;
21705;SDS011;11014;53.076;18.208;2022-07-10T12:13:12;3.25;;;1.10;;
21705;SDS011;11014;53.076;18.208;2022-07-10T12:15:42;2.88;;;1.05;;
21705;SDS011;11014;53.076;18.208;2022-07-10T12:18:20;2.70;;;1.20;;
21705;SDS011;11014;53.076;18.208;2022-07-10T12:20:50;2.67;;;0.85;;
21705;SDS011;11014;53.076;18.208;2022-07-10T12:23:20;2.78;;;1.27;;
21705;SDS011;11014;53.076;18.208;2022-07-10T12:25:51;3.95;;;1.00;;
21705;SDS011;11014;53.076;18.208;2022-07-10T12:28:19;4.10;;;1.30;;
21705;SDS011;11014;53.076;18.208;2022-07-10T12:30:48;4.90;;;1.15;;
21705;SDS011;11014;53.076;18.208;2022-07-10T12:33:21;3.28;;;1.13;;
21705;SDS011;11014;53.076;18.208;2022-07-10T12:42:30;2.03;;;1.20;;
21705;SDS011;11014;53.076;18.208;2022-07-10T12:45:26;4.47;;;1.35;;
21705;SDS011;11014;53.076;18.208;2022-07-10T12:48:23;3.47;;;1.10;;
21705;SDS011;11014;53.076;18.208;2022-07-10T12:53:20;1.95;;;0.85;;
21705;SDS011;11014;53.076;18.208;2022-07-10T12:55:48;2.22;;;1.00;;
21705;SDS011;11014;53.076;18.208;2022-07-10T12:58:16;3.88;;;1.10;;
21705;SDS011;11014;53.076;18.208;2022-07-10T13:00:45;4.15;;;1.23;;
21705;SDS011;11014;53.076;18.208;2022-07-10T13:03:19;2.78;;;1.20;;
21705;SDS011;11014;53.076;18.208;2022-07-10T13:05:52;1.58;;;1.00;;
21705;SDS011;11014;53.076;18.208;2022-07-10T13:08:21;2.47;;;1.00;;
21705;SDS011;11014;53.076;18.208;2022-07-10T13:10:53;1.48;;;0.85;;
21705;SDS011;11014;53.076;18.208;2022-07-10T13:13:23;1.27;;;1.02;;
21705;SDS011;11014;53.076;18.208;2022-07-10T13:15:51;2.80;;;1.00;;
21705;SDS011;11014;53.076;18.208;2022-07-10T13:18:25;2.15;;;1.10;;
21705;SDS011;11014;53.076;18.208;2022-07-10T13:20:55;3.10;;;1.17;;
21705;SDS011;11014;53.076;18.208;2022-07-10T13:23:29;1.77;;;1.08;;
21705;SDS011;11014;53.076;18.208;2022-07-10T13:25:58;3.03;;;0.88;;
21705;SDS011;11014;53.076;18.208;2022-07-10T13:28:29;3.47;;;0.90;;
21705;SDS011;11014;53.076;18.208;2022-07-10T13:30:57;2.20;;;1.13;;
21705;SDS011;11014;53.076;18.208;2022-07-10T13:33:26;3.30;;;1.33;;
21705;SDS011;11014;53.076;18.208;2022-07-10T13:35:55;3.67;;;1.10;;
21705;SDS011;11014;53.076;18.208;2022-07-10T13:38:28;1.80;;;1.08;;
21705;SDS011;11014;53.076;18.208;2022-07-10T13:40:57;2.15;;;1.10;;
21705;SDS011;11014;53.076;18.208;2022-07-10T13:43:25;1.55;;;0.80;;
21705;SDS011;11014;53.076;18.208;2022-07-10T13:45:57;2.83;;;1.33;;
21705;SDS011;11014;53.076;18.208;2022-07-10T13:48:27;2.35;;;1.00;;
21705;SDS011;11014;53.076;18.208;2022-07-10T13:50:56;2.20;;;1.05;;
21705;SDS011;11014;53.076;18.208;2022-07-10T13:53:25;2.38;;;1.10;;
21705;SDS011;11014;53.076;18.208;2022-07-10T13:58:49;3.17;;;1.00;;
21705;SDS011;11014;53.076;18.208;2022-07-10T14:01:18;3.17;;;0.95;;
21705;SDS011;11014;53.076;18.208;2022-07-10T14:03:47;2.30;;;1.02;;
21705;SDS011;11014;53.076;18.208;2022-07-10T14:06:19;1.50;;;1.10;;
21705;SDS011;11014;53.076;18.208;2022-07-10T14:08:48;1.77;;;0.90;;
21705;SDS011;11014;53.076;18.208;2022-07-10T14:11:31;2.22;;;1.00;;
21705;SDS011;11014;53.076;18.208;2022-07-10T14:14:01;1.77;;;0.98;;
21705;SDS011;11014;53.076;18.208;2022-07-10T14:16:29;1.38;;;1.08;;
21705;SDS011;11014;53.076;18.208;2022-07-10T14:18:59;1.52;;;0.80;;
21705;SDS011;11014;53.076;18.208;2022-07-10T14:22:07;1.45;;;0.82;;
21705;SDS011;11014;53.076;18.208;2022-07-10T14:24:38;1.00;;;0.90;;
21705;SDS011;11014;53.076;18.208;2022-07-10T14:27:07;2.25;;;1.05;;
21705;SDS011;11014;53.076;18.208;2022-07-10T14:29:35;1.80;;;1.08;;
21705;SDS011;11014;53.076;18.208;2022-07-10T14:32:04;2.83;;;1.10;;
21705;SDS011;11014;53.076;18.208;2022-07-10T14:34:32;2.38;;;1.00;;
21705;SDS011;11014;53.076;18.208;2022-07-10T14:37:01;2.08;;;1.00;;
21705;SDS011;11014;53.076;18.208;2022-07-10T14:39:30;1.75;;;1.13;;
21705;SDS011;11014;53.076;18.208;2022-07-10T14:41:58;4.65;;;1.20;;
21705;SDS011;11014;53.076;18.208;2022-07-10T14:44:32;1.35;;;0.98;;
21705;SDS011;11014;53.076;18.208;2022-07-10T14:47:18;1.73;;;0.93;;
21705;SDS011;11014;53.076;18.208;2022-07-10T14:49:48;2.20;;;1.10;;
21705;SDS011;11014;53.076;18.208;2022-07-10T14:52:16;1.27;;;0.98;;
21705;SDS011;11014;53.076;18.208;2022-07-10T14:54:48;2.80;;;0.88;;
21705;SDS011;11014;53.076;18.208;2022-07-10T14:57:18;2.42;;;1.00;;
21705;SDS011;11014;53.076;18.208;2022-07-10T14:59:47;1.73;;;0.82;;
21705;SDS011;11014;53.076;18.208;2022-07-10T15:02:15;2.42;;;1.00;;
21705;SDS011;11014;53.076;18.208;2022-07-10T15:04:44;1.67;;;0.90;;
21705;SDS011;11014;53.076;18.208;2022-07-10T15:07:18;3.42;;;1.50;;
21705;SDS011;11014;53.076;18.208;2022-07-10T15:09:46;2.72;;;1.30;;
21705;SDS011;11014;53.076;18.208;2022-07-10T15:12:15;3.53;;;1.08;;
21705;SDS011;11014;53.076;18.208;2022-07-10T15:14:43;1.85;;;0.90;;
21705;SDS011;11014;53.076;18.208;2022-07-10T15:17:17;1.63;;;0.90;;
21705;SDS011;11014;53.076;18.208;2022-07-10T15:19:46;1.27;;;0.70;;
21705;SDS011;11014;53.076;18.208;2022-07-10T15:22:15;1.63;;;1.00;;
21705;SDS011;11014;53.076;18.208;2022-07-10T15:24:57;1.83;;;1.10;;
21705;SDS011;11014;53.076;18.208;2022-07-10T15:27:37;1.48;;;0.82;;
21705;SDS011;11014;53.076;18.208;2022-07-10T15:30:08;1.80;;;0.95;;
21705;SDS011;11014;53.076;18.208;2022-07-10T15:32:46;1.48;;;0.93;;
21705;SDS011;11014;53.076;18.208;2022-07-10T15:35:28;1.23;;;0.90;;
21705;SDS011;11014;53.076;18.208;2022-07-10T15:37:57;3.22;;;1.20;;
21705;SDS011;11014;53.076;18.208;2022-07-10T15:43:50;1.92;;;0.88;;
21705;SDS011;11014;53.076;18.208;2022-07-10T15:46:18;0.85;;;0.80;;